Domov               UVHVVR             MKGP            O straneh              
ZDRAVSTVENO VARSTVO RASTLIN
  MREŽA AGROMET. POSTAJ
 ► PROGNOSTIČNA OBVESTILA
AGROMETEOROLOŠKI PODATKI -
ARSO
OBVLADOVANJE TVEGANJ ZARADI
NEUGODNIH VREMENSKIH RAZMER
  ► NARAVNE NESREČE
  ► SUŠA/MOČA
  ► NAMAKANJE
  ► ŽLED (gozdarstvo)
KARTOGRAFSKI PRIKAZI
SPLETNE POVEZAVE
PROJEKTI IN PUBLIKACIJE

AGROMETEOROLOŠKA MREŽA: VREMENSKE POSTAJE IN FENOLOŠKA OPAZOVANJA

Pregled podatkov za lokacijo Šlovrenc, meteorološka postaja 859088

Pregled senzorjev na lokaciji

ID Ime Zadnja
vrednost
Datum
zadnje
spremembe
Tip
senzorja
3973 Temperatura 2 m ( °C) 15,09 °C 21.8.2017 02:00 50YA
3974 Relativna vlaga 2 m (% RH) 74,68 % RH 21.8.2017 02:00 50YA
3975 Omočenost lista (U) 0 U 21.8.2017 02:00 A730WET
3976 Padavine 0.2 mm (mm) 0 mm 21.8.2017 02:00 Rain-O-Matic

Pregled podatkov zadnjih 24 ur

Zap.
št.
Datum in čas Šlovrenc
Omočenost
lista
Padavine
0.2
mm
Relativna
vlaga
2
m
Temperatura
2
m
0 21.8.2017 01:00 0 0 74,68 15,09
1 21.8.2017 00:30 0 0 61,75 17,39
2 21.8.2017 00:00 0 0 64,02 17,04
3 20.8.2017 23:30 0 0 63,5 17,18
4 20.8.2017 23:00 0 0 91,6 13,14
5 20.8.2017 22:30 0 0 92,05 13,06
6 20.8.2017 22:00 0 0 90,45 13,39
7 20.8.2017 21:30 0 0 88,81 13,68
8 20.8.2017 21:00 0 0 79,59 15,06
9 20.8.2017 20:30 0 0 64,6 17,63
10 20.8.2017 20:00 0 0 50,05 20,31
11 20.8.2017 19:30 0 0 44,31 21,89
12 20.8.2017 19:00 0 0 44,46 22,35
13 20.8.2017 18:30 0 0 42,32 23,29
14 20.8.2017 18:00 0 0 41,16 24,07
15 20.8.2017 17:30 0 0 40,33 25,01
16 20.8.2017 17:00 0 0 39,54 25,65
17 20.8.2017 16:30 0 0 40,27 26,2
18 20.8.2017 16:00 0 0 39,78 26,6
19 20.8.2017 15:30 0 0 40,13 26,87
20 20.8.2017 15:00 0 0 40,5 27,27
21 20.8.2017 14:30 0 0 39,65 27,52
22 20.8.2017 14:00 0 0 40,41 27,77
23 20.8.2017 13:30 0 0 40,21 27,86
24 20.8.2017 13:00 0 0 39,71 27,8
25 20.8.2017 12:30 0 0 39,58 27,37
26 20.8.2017 12:00 0 0 43,16 26,58
27 20.8.2017 11:30 0 0 42,95 26,22
28 20.8.2017 11:00 0 0 46,53 25,51
29 20.8.2017 10:30 0 0 43,95 25,54
30 20.8.2017 10:00 0 0 45,47 25,39
31 20.8.2017 09:30 0 0 46,96 24,41
32 20.8.2017 09:00 0 0 48,28 24,47
33 20.8.2017 08:30 0 0 46,64 24,19
34 20.8.2017 08:00 0 0 49,48 23,94
35 20.8.2017 07:30 0 0 53,58 21,82
36 20.8.2017 07:00 0 0 59,95 20,07
37 20.8.2017 06:30 0 0 70,94 17,34
38 20.8.2017 06:00 0 0 81,51 14,91
39 20.8.2017 05:30 0 0 75,33 15,57
40 20.8.2017 05:00 0 0 70,91 16,37
41 20.8.2017 04:30 0 0 61,88 18,09
42 20.8.2017 04:00 0 0 63,4 18
43 20.8.2017 03:30 0 0 68,87 17,48
44 20.8.2017 03:00 0 0 82,83 16,09
© 2011 Ministrstvo za kmetijstvo, gozdarstvo in prehrano. Vse pravice pridržane.